createdAt,value
2023-04-18T00:02:04.726Z,11.25
2023-04-18T00:04:34.100Z,8.38
2023-04-18T00:07:02.550Z,13.13
2023-04-18T00:09:30.738Z,11.27
2023-04-18T00:12:01.672Z,9.90
2023-04-18T00:14:30.123Z,8.77
2023-04-18T00:16:58.455Z,10.55
2023-04-18T00:19:26.795Z,11.13
2023-04-18T00:21:55.972Z,8.75
2023-04-18T00:24:24.277Z,12.00
2023-04-18T00:26:52.792Z,11.82
2023-04-18T00:29:23.693Z,9.65
2023-04-18T00:31:51.813Z,10.30
2023-04-18T00:34:20.120Z,7.85
2023-04-18T00:36:48.188Z,12.10
2023-04-18T00:39:16.611Z,9.52
2023-04-18T00:41:44.691Z,12.63
2023-04-18T00:44:13.198Z,11.88
2023-04-18T00:46:43.138Z,8.18
2023-04-18T00:49:11.551Z,11.98
2023-04-18T00:51:40.892Z,14.23
2023-04-18T00:54:09.839Z,12.82
2023-04-18T00:56:38.576Z,9.40
2023-04-18T00:59:07.186Z,13.63
2023-04-18T01:01:35.331Z,12.52
2023-04-18T01:04:05.617Z,16.42
2023-04-18T01:06:34.728Z,12.38
2023-04-18T01:09:05.545Z,13.70
2023-04-18T01:11:33.665Z,14.82
2023-04-18T01:14:02.521Z,15.77
2023-04-18T01:16:32.990Z,11.48
2023-04-18T01:19:01.065Z,12.60
2023-04-18T01:21:31.636Z,14.57
2023-04-18T01:24:04.209Z,15.27
2023-04-18T01:26:34.002Z,13.02
2023-04-18T01:29:02.518Z,16.63
2023-04-18T01:31:30.697Z,13.88
2023-04-18T01:33:59.165Z,18.65
2023-04-18T01:36:27.825Z,15.82
2023-04-18T01:38:56.045Z,12.20
2023-04-18T01:41:24.262Z,15.20
2023-04-18T01:43:53.779Z,13.52
2023-04-18T01:46:22.318Z,17.23
2023-04-18T01:48:50.801Z,17.55
2023-04-18T01:51:19.179Z,15.80
2023-04-18T01:53:47.523Z,12.45
2023-04-18T01:56:15.616Z,11.68
2023-04-18T01:58:43.782Z,14.50
2023-04-18T02:01:13.421Z,13.77
2023-04-18T02:03:42.249Z,12.25
2023-04-18T02:06:10.614Z,13.50
2023-04-18T02:08:38.746Z,16.23
2023-04-18T02:11:07.024Z,15.80
2023-04-18T02:13:35.455Z,13.27
2023-04-18T02:16:03.588Z,10.80
2023-04-18T02:18:34.596Z,12.63
2023-04-18T02:21:02.660Z,16.13
2023-04-18T02:23:31.050Z,11.48
2023-04-18T02:25:59.171Z,15.10
2023-04-18T02:28:27.569Z,10.77
2023-04-18T02:30:55.927Z,15.77
2023-04-18T02:33:24.285Z,7.97
2023-04-18T02:35:54.157Z,13.63
2023-04-18T02:38:22.253Z,14.20
2023-04-18T02:40:50.398Z,15.55
2023-04-18T02:43:18.482Z,13.30
2023-04-18T02:45:46.605Z,8.90
2023-04-18T02:48:15.191Z,13.15
2023-04-18T02:50:43.714Z,14.70
2023-04-18T02:53:13.455Z,13.05
2023-04-18T02:55:41.553Z,13.32
2023-04-18T02:58:10.336Z,13.85
2023-04-18T03:00:38.413Z,14.15
2023-04-18T03:03:06.692Z,14.10
2023-04-18T03:05:34.970Z,13.20
2023-04-18T03:08:03.120Z,13.90
2023-04-18T03:10:32.581Z,12.32
2023-04-18T03:13:01.185Z,11.57
2023-04-18T03:15:31.018Z,12.15
2023-04-18T03:17:59.816Z,11.10
2023-04-18T03:20:27.929Z,15.45
2023-04-18T03:22:56.055Z,16.20
2023-04-18T03:25:24.197Z,12.88
2023-04-18T03:27:53.945Z,16.05
2023-04-18T03:30:22.207Z,15.30
2023-04-18T03:32:50.515Z,10.02
2023-04-18T03:35:18.750Z,15.70
2023-04-18T03:37:47.026Z,14.02
2023-04-18T03:40:15.664Z,4.97
2023-04-18T03:42:43.761Z,11.98
2023-04-18T03:45:13.428Z,14.82
2023-04-18T03:47:41.566Z,11.68
2023-04-18T03:50:10.419Z,13.48
2023-04-18T03:52:38.531Z,15.18
2023-04-18T03:55:07.497Z,7.20
2023-04-18T03:57:35.662Z,15.15
2023-04-18T04:00:07.992Z,7.93
2023-04-18T04:02:37.756Z,13.07
2023-04-18T04:05:06.659Z,11.85
2023-04-18T04:07:35.395Z,13.27
2023-04-18T04:10:03.555Z,12.25
2023-04-18T04:12:32.193Z,12.05
2023-04-18T04:15:00.966Z,13.60
2023-04-18T04:17:29.163Z,17.60
2023-04-18T04:19:58.950Z,15.43
2023-04-18T04:22:27.341Z,13.23
2023-04-18T04:24:57.810Z,17.48
2023-04-18T04:27:27.142Z,14.40
2023-04-18T04:29:56.888Z,11.85
2023-04-18T04:32:25.996Z,13.77
2023-04-18T04:34:54.072Z,13.05
2023-04-18T04:37:24.084Z,15.30
2023-04-18T04:39:52.323Z,10.13
2023-04-18T04:42:20.784Z,14.55
2023-04-18T04:44:48.936Z,14.65
2023-04-18T04:47:17.374Z,16.48
2023-04-18T04:49:45.665Z,10.75
2023-04-18T04:52:13.808Z,16.10
2023-04-18T04:54:45.796Z,6.63
2023-04-18T04:57:14.081Z,11.35
2023-04-18T04:59:42.323Z,8.05
2023-04-18T05:02:10.512Z,6.88
2023-04-18T05:04:39.150Z,16.05
2023-04-18T05:07:07.417Z,13.88
2023-04-18T05:09:35.547Z,14.18
2023-04-18T05:12:06.112Z,12.32
2023-04-18T05:14:34.218Z,11.88
2023-04-18T05:17:02.774Z,13.40
2023-04-18T05:19:31.157Z,11.68
2023-04-18T05:21:59.295Z,9.32
2023-04-18T05:24:27.403Z,13.82
2023-04-18T05:26:56.049Z,13.30
2023-04-18T05:29:25.738Z,14.60
2023-04-18T05:31:53.833Z,12.65
2023-04-18T05:34:22.288Z,15.25
2023-04-18T05:36:50.810Z,14.70
2023-04-18T05:39:18.875Z,7.75
2023-04-18T05:41:47.041Z,18.17
2023-04-18T05:44:16.168Z,13.63
2023-04-18T05:46:45.870Z,13.07
2023-04-18T05:49:14.682Z,11.80
2023-04-18T05:51:43.135Z,15.68
2023-04-18T05:54:11.419Z,13.35
2023-04-18T05:56:42.011Z,12.35
2023-04-18T05:59:10.540Z,12.63
2023-04-18T06:01:38.640Z,12.25
2023-04-18T06:04:08.741Z,8.43
2023-04-18T06:06:37.057Z,13.32
2023-04-18T06:09:06.410Z,11.07
2023-04-18T06:11:35.703Z,10.73
2023-04-18T06:14:03.978Z,12.52
2023-04-18T06:16:32.388Z,13.48
2023-04-18T06:19:02.683Z,12.60
2023-04-18T06:21:32.257Z,14.65
2023-04-18T06:24:01.761Z,12.38
2023-04-18T06:26:31.182Z,10.88
2023-04-18T06:28:59.310Z,14.10
2023-04-18T06:31:27.470Z,13.02
2023-04-18T06:33:55.647Z,13.38
2023-04-18T06:36:23.889Z,9.00
2023-04-18T06:38:53.381Z,12.05
2023-04-18T06:41:21.468Z,14.27
2023-04-18T06:44:02.600Z,9.77
2023-04-18T06:46:32.225Z,11.27
2023-04-18T06:49:00.727Z,14.77
2023-04-18T06:51:29.073Z,13.63
2023-04-18T06:53:58.560Z,9.15
2023-04-18T06:56:27.322Z,15.32
2023-04-18T06:58:55.420Z,9.63
2023-04-18T07:01:23.576Z,12.82
2023-04-18T07:03:51.724Z,9.50
2023-04-18T07:06:19.906Z,10.85
2023-04-18T07:08:47.981Z,9.73
2023-04-18T07:11:18.831Z,13.63
2023-04-18T07:13:47.451Z,11.30
2023-04-18T07:16:15.573Z,11.23
2023-04-18T07:18:43.679Z,5.97
2023-04-18T07:21:12.153Z,11.80
2023-04-18T07:23:40.285Z,15.10
2023-04-18T07:26:10.010Z,10.60
2023-04-18T07:28:39.569Z,11.63
2023-04-18T07:31:11.233Z,13.05
2023-04-18T07:33:39.668Z,12.45
2023-04-18T07:36:08.751Z,13.15
2023-04-18T07:38:36.848Z,12.23
2023-04-18T07:41:05.269Z,9.48
2023-04-18T07:43:33.419Z,9.18
2023-04-18T07:46:03.130Z,11.90
2023-04-18T07:48:31.609Z,8.75
2023-04-18T07:51:00.281Z,8.38
2023-04-18T07:53:28.385Z,10.07
2023-04-18T07:55:57.300Z,8.48
2023-04-18T07:58:25.466Z,10.18
2023-04-18T08:00:53.597Z,9.82
2023-04-18T08:03:23.297Z,12.05
2023-04-18T08:05:51.981Z,9.43
2023-04-18T08:08:20.387Z,12.20
2023-04-18T08:10:48.550Z,8.32
2023-04-18T08:13:18.269Z,8.93
2023-04-18T08:15:47.143Z,9.95
2023-04-18T08:18:15.278Z,6.03
2023-04-18T08:20:44.830Z,5.65
2023-04-18T08:23:13.373Z,5.28
2023-04-18T08:25:41.921Z,7.55
2023-04-18T08:28:10.087Z,7.18
2023-04-18T08:30:38.329Z,8.27
2023-04-18T08:33:06.860Z,7.50
2023-04-18T08:35:35.363Z,9.38
2023-04-18T08:38:05.124Z,9.07
2023-04-18T08:40:33.636Z,7.47
2023-04-18T08:43:04.972Z,7.82
2023-04-18T08:45:33.391Z,6.57
2023-04-18T08:48:04.035Z,6.82
2023-04-18T08:50:32.392Z,6.90
2023-04-18T08:53:02.534Z,8.65
2023-04-18T08:55:33.631Z,7.65
2023-04-18T08:58:01.911Z,8.18
2023-04-18T09:00:30.873Z,7.40
2023-04-18T09:02:59.408Z,7.70
2023-04-18T09:05:28.323Z,5.80
2023-04-18T09:07:57.614Z,5.38
2023-04-18T09:10:30.153Z,7.47
2023-04-18T09:13:02.981Z,7.68
2023-04-18T09:15:31.689Z,7.72
2023-04-18T09:18:02.749Z,6.55
2023-04-18T09:20:38.471Z,8.02
2023-04-18T09:23:10.793Z,7.10
2023-04-18T09:25:46.855Z,5.90
2023-04-18T09:28:27.052Z,6.53
2023-04-18T09:30:56.518Z,5.82
2023-04-18T09:33:29.305Z,6.28
2023-04-18T09:36:00.289Z,6.03
2023-04-18T09:38:40.927Z,4.45
2023-04-18T09:41:10.046Z,3.83
2023-04-18T09:43:39.864Z,5.28
2023-04-18T09:46:09.450Z,5.13
2023-04-18T09:48:37.761Z,4.97
2023-04-18T09:51:08.015Z,3.92
2023-04-18T09:53:40.604Z,5.05
2023-04-18T09:56:13.764Z,6.00
2023-04-18T09:58:45.035Z,6.68
2023-04-18T10:01:13.440Z,6.80
2023-04-18T10:03:48.595Z,6.28
2023-04-18T10:06:17.766Z,6.93
2023-04-18T10:08:46.436Z,7.05
2023-04-18T10:11:14.939Z,6.45
2023-04-18T10:13:48.657Z,7.28
2023-04-18T10:16:18.251Z,6.50
2023-04-18T10:18:46.782Z,4.60
2023-04-18T10:21:15.438Z,6.32
2023-04-18T10:23:43.636Z,5.68
2023-04-18T10:26:12.203Z,5.55
2023-04-18T10:29:01.321Z,5.43
2023-04-18T10:31:30.203Z,6.28
2023-04-18T10:34:05.224Z,6.18
2023-04-18T10:36:34.569Z,6.20
2023-04-18T10:39:20.449Z,4.90
2023-04-18T10:41:51.641Z,5.55
2023-04-18T10:44:23.685Z,5.93
2023-04-18T10:47:21.865Z,5.55
2023-04-18T10:50:11.736Z,7.03
2023-04-18T10:52:40.282Z,7.72
2023-04-18T10:55:14.801Z,5.53
2023-04-18T10:57:44.453Z,7.78
2023-04-18T11:00:15.900Z,6.65
2023-04-18T11:02:51.526Z,6.60
2023-04-18T11:05:24.962Z,5.50
2023-04-18T11:07:53.891Z,4.75
2023-04-18T11:10:23.877Z,6.00
2023-04-18T11:12:53.554Z,6.32
2023-04-18T11:15:24.495Z,2.72
2023-04-18T11:18:02.607Z,6.55
2023-04-18T11:20:31.566Z,4.85
2023-04-18T11:23:01.421Z,5.15
2023-04-18T11:25:31.973Z,4.57
2023-04-18T11:28:01.808Z,3.33
2023-04-18T11:30:38.696Z,4.00
2023-04-18T11:33:08.673Z,4.43
2023-04-18T11:35:38.948Z,6.13
2023-04-18T11:38:07.602Z,6.10
2023-04-18T11:40:36.611Z,6.00
2023-04-18T11:43:06.777Z,4.15
2023-04-18T11:45:36.347Z,5.03
2023-04-18T11:48:05.084Z,5.32
2023-04-18T11:50:37.546Z,4.25
2023-04-18T11:53:05.699Z,4.60
2023-04-18T11:55:34.247Z,6.20
2023-04-18T11:58:03.258Z,6.80
2023-04-18T12:00:33.882Z,6.78
2023-04-18T12:03:05.306Z,5.40
2023-04-18T12:05:34.963Z,5.78
2023-04-18T12:08:11.298Z,6.07
2023-04-18T12:10:46.883Z,8.70
2023-04-18T12:13:15.251Z,5.60
2023-04-18T12:15:45.694Z,6.45
2023-04-18T12:18:18.081Z,5.95
2023-04-18T12:20:50.305Z,8.07
2023-04-18T12:23:32.054Z,7.07
2023-04-18T12:26:01.432Z,5.57
2023-04-18T12:28:29.682Z,6.47
2023-04-18T12:30:57.935Z,5.70
2023-04-18T12:33:27.897Z,6.40
2023-04-18T12:35:56.169Z,7.60
2023-04-18T12:38:24.917Z,6.10
2023-04-18T12:40:53.630Z,5.88
2023-04-18T12:43:21.819Z,6.60
2023-04-18T12:45:51.155Z,4.88
2023-04-18T12:48:19.293Z,6.22
2023-04-18T12:50:48.938Z,6.53
2023-04-18T12:53:17.089Z,8.77
2023-04-18T12:55:45.237Z,7.60
2023-04-18T12:58:18.445Z,6.00
2023-04-18T13:00:46.656Z,7.03
2023-04-18T13:03:15.320Z,7.85
2023-04-18T13:05:43.562Z,9.10
2023-04-18T13:08:17.633Z,5.50
2023-04-18T13:10:46.366Z,8.30
2023-04-18T13:13:14.847Z,8.52
2023-04-18T13:15:42.936Z,6.63
2023-04-18T13:18:11.148Z,9.75
2023-04-18T13:20:39.272Z,5.57
2023-04-18T13:23:07.701Z,8.68
2023-04-18T13:25:37.178Z,7.60
2023-04-18T13:28:05.417Z,10.20
2023-04-18T13:30:35.912Z,10.20
2023-04-18T13:33:04.199Z,7.03
2023-04-18T13:35:32.426Z,8.70
2023-04-18T13:38:00.529Z,8.60
2023-04-18T13:40:28.617Z,7.32
2023-04-18T13:42:58.098Z,10.70
2023-04-18T13:45:26.172Z,6.43
2023-04-18T13:47:54.338Z,7.63
2023-04-18T13:50:23.475Z,7.57
2023-04-18T13:52:52.236Z,8.02
2023-04-18T13:55:20.361Z,10.57
2023-04-18T13:57:48.535Z,9.00
2023-04-18T14:00:19.381Z,9.98
2023-04-18T14:02:48.054Z,6.80
2023-04-18T14:05:16.256Z,8.50
2023-04-18T14:07:44.860Z,8.05
2023-04-18T14:10:13.026Z,8.95
2023-04-18T14:12:41.164Z,11.45
2023-04-18T14:15:10.642Z,7.05
2023-04-18T14:17:41.468Z,8.23
2023-04-18T14:20:10.925Z,8.00
2023-04-18T14:22:39.011Z,7.90
2023-04-18T14:25:08.799Z,9.00
2023-04-18T14:27:37.428Z,10.77
2023-04-18T14:30:08.535Z,8.80
2023-04-18T14:32:36.903Z,9.20
2023-04-18T14:35:07.163Z,10.98
2023-04-18T14:37:35.737Z,8.45
2023-04-18T14:40:04.152Z,8.50
2023-04-18T14:42:32.513Z,8.90
2023-04-18T14:45:00.598Z,9.57
2023-04-18T14:47:32.057Z,13.10
2023-04-18T14:50:00.190Z,7.53
2023-04-18T14:52:29.660Z,8.15
2023-04-18T14:54:57.951Z,8.02
2023-04-18T14:57:26.476Z,9.32
2023-04-18T14:59:54.985Z,10.40
2023-04-18T15:02:23.251Z,8.48
2023-04-18T15:04:53.250Z,8.80
2023-04-18T15:07:21.797Z,6.35
2023-04-18T15:09:52.201Z,9.13
2023-04-18T15:12:20.385Z,13.55
2023-04-18T15:14:48.636Z,7.32
2023-04-18T15:17:17.126Z,10.10
2023-04-18T15:19:45.226Z,8.43
2023-04-18T15:22:13.355Z,9.82
2023-04-18T15:24:41.948Z,8.85
2023-04-18T15:27:12.174Z,11.77
2023-04-18T15:29:40.996Z,7.50
2023-04-18T15:32:09.850Z,10.18
2023-04-18T15:34:38.024Z,9.18
2023-04-18T15:37:06.460Z,9.43
2023-04-18T15:39:34.873Z,9.02
2023-04-18T15:42:03.332Z,8.50
2023-04-18T15:44:32.851Z,9.05
2023-04-18T15:47:01.890Z,9.00
2023-04-18T15:49:30.278Z,9.40
2023-04-18T15:51:58.368Z,6.30
2023-04-18T15:54:26.505Z,7.00
2023-04-18T15:56:55.591Z,8.10
2023-04-18T15:59:23.976Z,7.13
2023-04-18T16:01:53.498Z,9.60
2023-04-18T16:04:22.141Z,8.05
2023-04-18T16:06:50.293Z,10.68
2023-04-18T16:09:18.893Z,8.40
2023-04-18T16:11:47.011Z,9.23
2023-04-18T16:14:15.336Z,5.60
2023-04-18T16:16:43.551Z,12.27
2023-04-18T16:19:13.124Z,10.73
2023-04-18T16:21:41.236Z,9.70
2023-04-18T16:24:09.403Z,9.68
2023-04-18T16:26:37.973Z,10.13
2023-04-18T16:29:06.250Z,8.57
2023-04-18T16:31:35.147Z,8.90
2023-04-18T16:34:03.947Z,8.63
2023-04-18T16:36:35.829Z,10.80
2023-04-18T16:39:04.756Z,9.02
2023-04-18T16:41:32.852Z,7.50
2023-04-18T16:44:01.003Z,12.80
2023-04-18T16:46:31.369Z,9.13
2023-04-18T16:49:01.552Z,9.13
2023-04-18T16:51:30.212Z,8.02
2023-04-18T16:53:59.705Z,8.38
2023-04-18T16:56:27.774Z,11.00
2023-04-18T16:58:55.961Z,10.98
2023-04-18T17:01:24.132Z,7.90
2023-04-18T17:03:52.623Z,9.93
2023-04-18T17:06:22.808Z,7.88
2023-04-18T17:08:53.484Z,9.13
2023-04-18T17:11:23.264Z,8.82
2023-04-18T17:13:51.345Z,8.02
2023-04-18T17:16:19.901Z,7.50
2023-04-18T17:18:48.245Z,6.53
2023-04-18T17:21:16.363Z,7.57
2023-04-18T17:23:44.453Z,7.07
2023-04-18T17:26:12.588Z,4.22
2023-04-18T17:28:42.352Z,6.63
2023-04-18T17:31:10.475Z,5.72
2023-04-18T17:33:38.566Z,5.15
2023-04-18T17:36:07.683Z,5.10
2023-04-18T17:38:35.796Z,4.50
2023-04-18T17:41:05.745Z,5.85
2023-04-18T17:43:33.846Z,4.10
2023-04-18T17:46:04.037Z,4.70
2023-04-18T17:48:32.496Z,6.40
2023-04-18T17:51:00.693Z,4.18
2023-04-18T17:53:30.217Z,5.13
2023-04-18T17:56:00.241Z,6.75
2023-04-18T17:58:30.089Z,5.25
2023-04-18T18:00:58.305Z,5.32
2023-04-18T18:03:28.018Z,4.10
2023-04-18T18:05:56.205Z,3.92
2023-04-18T18:08:24.327Z,6.70
2023-04-18T18:10:52.457Z,4.07
2023-04-18T18:13:20.568Z,4.97
2023-04-18T18:15:48.977Z,5.22
2023-04-18T18:18:17.492Z,5.75
2023-04-18T18:20:47.026Z,5.07
2023-04-18T18:23:15.191Z,6.43
2023-04-18T18:25:43.382Z,3.50
2023-04-18T18:28:11.626Z,3.58
2023-04-18T18:30:40.158Z,4.20
2023-04-18T18:33:08.288Z,4.22
2023-04-18T18:35:36.656Z,2.83
2023-04-18T18:38:06.492Z,3.75
2023-04-18T18:40:34.643Z,4.57
2023-04-18T18:43:03.145Z,4.85
2023-04-18T18:45:31.557Z,3.72
2023-04-18T18:47:59.765Z,3.33
2023-04-18T18:50:27.886Z,3.50
2023-04-18T18:52:56.228Z,2.17
2023-04-18T18:55:25.869Z,4.07
2023-04-18T18:57:53.977Z,4.00
2023-04-18T19:00:22.173Z,4.63
2023-04-18T19:02:50.657Z,3.60
2023-04-18T19:05:18.845Z,2.85
2023-04-18T19:07:47.129Z,2.45
2023-04-18T19:10:15.501Z,4.38
2023-04-18T19:12:45.043Z,2.58
2023-04-18T19:15:13.862Z,4.63
2023-04-18T19:17:41.957Z,4.28
2023-04-18T19:20:11.016Z,4.85
2023-04-18T19:22:39.114Z,3.58
2023-04-18T19:25:08.779Z,3.78
2023-04-18T19:27:36.928Z,4.13
2023-04-18T19:30:08.133Z,4.15
2023-04-18T19:32:36.365Z,5.45
2023-04-18T19:35:05.597Z,5.10
2023-04-18T19:37:34.055Z,4.05
2023-04-18T19:40:02.756Z,5.28
2023-04-18T19:42:31.210Z,4.70
2023-04-18T19:44:59.736Z,3.15
2023-04-18T19:47:32.488Z,4.80
2023-04-18T19:50:00.907Z,9.82
2023-04-18T19:52:29.043Z,4.80
2023-04-18T19:54:57.147Z,4.95
2023-04-18T19:57:26.714Z,4.50
2023-04-18T19:59:54.860Z,5.10
2023-04-18T20:02:23.133Z,2.90
2023-04-18T20:04:53.287Z,4.60
2023-04-18T20:07:21.744Z,4.72
2023-04-18T20:09:50.752Z,4.20
2023-04-18T20:12:19.217Z,2.85
2023-04-18T20:14:47.283Z,5.40
2023-04-18T20:17:15.833Z,6.38
2023-04-18T20:19:44.163Z,5.40
2023-04-18T20:22:14.422Z,5.70
2023-04-18T20:24:42.808Z,6.40
2023-04-18T20:27:10.895Z,4.32
2023-04-18T20:29:39.109Z,3.20
2023-04-18T20:32:07.844Z,4.95
2023-04-18T20:34:35.979Z,6.50
2023-04-18T20:37:07.448Z,6.88
2023-04-18T20:39:38.556Z,4.68
2023-04-18T20:42:07.092Z,6.88
2023-04-18T20:44:36.075Z,5.45
2023-04-18T20:47:04.666Z,14.27
2023-04-18T20:49:34.363Z,7.30
2023-04-18T20:52:02.425Z,5.68
2023-04-18T20:54:30.673Z,5.47
2023-04-18T20:57:00.198Z,4.45
2023-04-18T20:59:28.300Z,7.45
2023-04-18T21:01:56.501Z,3.72
2023-04-18T21:04:25.084Z,5.25
2023-04-18T21:06:53.414Z,6.05
2023-04-18T21:09:21.868Z,6.05
2023-04-18T21:11:49.973Z,4.28
2023-04-18T21:14:20.003Z,2.40
2023-04-18T21:16:48.410Z,5.93
2023-04-18T21:19:16.489Z,4.25
2023-04-18T21:21:44.612Z,4.07
2023-04-18T21:24:12.756Z,3.15
2023-04-18T21:26:41.311Z,4.80
2023-04-18T21:29:10.074Z,4.18
2023-04-18T21:31:39.577Z,3.55
2023-04-18T21:34:07.743Z,5.30
2023-04-18T21:36:36.037Z,3.95
2023-04-18T21:39:04.677Z,5.47
2023-04-18T21:41:32.747Z,4.75
2023-04-18T21:44:01.324Z,5.93
2023-04-18T21:46:29.475Z,3.40
2023-04-18T21:48:59.320Z,4.78
2023-04-18T21:51:28.322Z,6.75
2023-04-18T21:53:56.541Z,6.57
2023-04-18T21:56:24.624Z,6.07
2023-04-18T21:58:52.756Z,4.30
2023-04-18T22:01:20.872Z,7.07
2023-04-18T22:03:49.546Z,4.45
2023-04-18T22:06:20.790Z,5.07
2023-04-18T22:08:50.003Z,3.42
2023-04-18T22:11:18.839Z,4.63
2023-04-18T22:13:47.391Z,5.25
2023-04-18T22:16:15.582Z,3.72
2023-04-18T22:18:43.832Z,4.13
2023-04-18T22:21:11.967Z,4.97
2023-04-18T22:23:41.481Z,3.63
2023-04-18T22:26:09.646Z,3.20
2023-04-18T22:28:37.755Z,4.78
2023-04-18T22:31:06.280Z,4.55
2023-04-18T22:33:34.387Z,3.47
2023-04-18T22:36:02.495Z,2.33
2023-04-18T22:38:30.624Z,8.55
2023-04-18T22:41:00.874Z,2.10
2023-04-18T22:43:28.957Z,3.22
2023-04-18T22:45:57.387Z,3.28
2023-04-18T22:48:25.838Z,3.75
2023-04-18T22:50:54.402Z,2.97
2023-04-18T22:53:22.798Z,2.92
2023-04-18T22:55:50.913Z,2.40
2023-04-18T22:58:20.414Z,2.15
2023-04-18T23:00:48.536Z,3.78
2023-04-18T23:03:16.770Z,5.72
2023-04-18T23:05:45.037Z,2.42
2023-04-18T23:08:13.105Z,2.00
2023-04-18T23:10:41.250Z,3.33
2023-04-18T23:13:09.342Z,2.53
2023-04-18T23:15:38.925Z,2.05
2023-04-18T23:18:07.236Z,3.55
2023-04-18T23:20:36.385Z,3.05
2023-04-18T23:23:04.535Z,3.70
2023-04-18T23:25:34.284Z,4.50
2023-04-18T23:28:02.371Z,4.70
2023-04-18T23:30:30.653Z,4.53
2023-04-18T23:33:00.244Z,4.30
2023-04-18T23:35:28.635Z,6.90
2023-04-18T23:37:57.162Z,4.32
2023-04-18T23:40:25.767Z,5.47
2023-04-18T23:42:54.020Z,2.50
2023-04-18T23:45:24.407Z,3.38
2023-04-18T23:47:52.964Z,2.67
2023-04-18T23:50:22.474Z,4.22
2023-04-18T23:52:51.190Z,4.72
2023-04-18T23:55:19.345Z,2.78
2023-04-18T23:57:47.475Z,2.40
